createdAt,value
2019-04-25T00:00:38.084Z,100167.00
2019-04-25T00:03:08.765Z,100192.00
2019-04-25T00:05:39.324Z,100187.00
2019-04-25T00:08:11.484Z,100177.00
2019-04-25T00:10:43.813Z,100180.00
2019-04-25T00:13:14.864Z,100179.00
2019-04-25T00:15:46.832Z,100190.00
2019-04-25T00:18:17.444Z,100195.00
2019-04-25T00:20:49.473Z,100185.00
2019-04-25T00:23:21.713Z,100174.00
2019-04-25T00:25:56.473Z,100182.00
2019-04-25T00:28:26.847Z,100197.00
2019-04-25T00:30:57.238Z,100196.00
2019-04-25T00:33:27.611Z,100179.00
2019-04-25T00:35:58.007Z,100183.00
2019-04-25T00:38:28.386Z,100185.00
2019-04-25T00:40:58.784Z,100208.00
2019-04-25T00:43:29.168Z,100201.00
2019-04-25T00:45:59.562Z,100210.00
2019-04-25T00:48:31.574Z,100204.00
2019-04-25T00:51:02.117Z,100214.00
2019-04-25T00:53:32.521Z,100216.00
2019-04-25T00:56:02.880Z,100213.00
2019-04-25T00:58:47.126Z,100224.00
2019-04-25T01:01:37.223Z,100215.00
2019-04-25T01:04:07.595Z,100215.00
2019-04-25T01:06:38.262Z,100219.00
2019-04-25T01:09:12.368Z,100216.00
2019-04-25T01:11:44.263Z,100218.00
2019-04-25T01:14:14.670Z,100224.00
2019-04-25T01:16:45.100Z,100230.00
2019-04-25T01:19:15.444Z,100223.00
2019-04-25T01:21:45.841Z,100221.00
2019-04-25T01:24:17.556Z,100228.00
2019-04-25T01:26:48.020Z,100217.00
2019-04-25T01:29:18.396Z,100211.00
2019-04-25T01:31:50.100Z,100210.00
2019-04-25T01:34:23.771Z,100208.00
2019-04-25T01:36:58.965Z,100217.00
2019-04-25T01:39:30.977Z,100218.00
2019-04-25T01:42:11.815Z,100216.00
2019-04-25T01:44:44.296Z,100228.00
2019-04-25T01:47:16.272Z,100233.00
2019-04-25T01:49:46.643Z,100239.00
2019-04-25T01:52:17.037Z,100237.00
2019-04-25T01:54:49.309Z,100241.00
2019-04-25T01:57:20.837Z,100243.00
2019-04-25T01:59:51.408Z,100253.00
2019-04-25T02:02:23.654Z,100268.00
2019-04-25T02:04:56.856Z,100283.00
2019-04-25T02:07:27.201Z,100277.00
2019-04-25T02:09:57.567Z,100262.00
2019-04-25T02:12:41.547Z,100262.00
2019-04-25T02:15:13.862Z,100266.00
2019-04-25T02:17:44.320Z,100273.00
2019-04-25T02:20:15.430Z,100273.00
2019-04-25T02:22:46.038Z,100282.00
2019-04-25T02:25:16.411Z,100286.00
2019-04-25T02:27:46.812Z,100293.00
2019-04-25T02:30:18.188Z,100299.00
2019-04-25T02:32:48.662Z,100313.00
2019-04-25T02:35:19.094Z,100333.00
2019-04-25T02:37:49.659Z,100321.00
2019-04-25T02:40:23.828Z,100338.00
2019-04-25T02:42:55.642Z,100337.00
2019-04-25T02:45:36.139Z,100348.00
2019-04-25T02:48:08.911Z,100346.00
2019-04-25T02:50:58.644Z,100351.00
2019-04-25T02:53:30.888Z,100347.00
2019-04-25T02:56:01.818Z,100352.00
2019-04-25T02:58:34.244Z,100362.00
2019-04-25T03:01:16.626Z,100364.00
2019-04-25T03:03:39.938Z,100370.00
2019-04-25T03:06:10.340Z,100364.00
2019-04-25T03:08:40.722Z,100354.00
2019-04-25T03:11:11.095Z,100357.00
2019-04-25T03:13:44.146Z,100364.00
2019-04-25T03:16:34.785Z,100357.00
2019-04-25T03:19:19.124Z,100360.00
2019-04-25T03:21:51.141Z,100366.00
2019-04-25T03:24:21.604Z,100364.00
2019-04-25T03:26:53.200Z,100367.00
2019-04-25T03:29:24.778Z,100371.00
2019-04-25T03:31:56.309Z,100370.00
2019-04-25T03:34:26.876Z,100374.00
2019-04-25T03:36:57.242Z,100373.00
2019-04-25T03:39:27.802Z,100379.00
2019-04-25T03:41:58.170Z,100382.00
2019-04-25T03:44:28.739Z,100384.00
2019-04-25T03:46:59.112Z,100394.00
2019-04-25T03:49:29.499Z,100404.00
2019-04-25T03:51:59.931Z,100406.00
2019-04-25T03:54:30.323Z,100418.00
2019-04-25T03:57:00.689Z,100416.00
2019-04-25T03:59:31.051Z,100422.00
2019-04-25T04:02:01.451Z,100437.00
2019-04-25T04:04:33.549Z,100445.00
2019-04-25T04:07:07.339Z,100453.00
2019-04-25T04:09:36.248Z,100449.00
2019-04-25T04:12:06.657Z,100450.00
2019-04-25T04:14:37.037Z,100458.00
2019-04-25T04:17:17.980Z,100462.00
2019-04-25T04:19:50.042Z,100452.00
2019-04-25T04:22:22.097Z,100462.00
2019-04-25T04:24:59.293Z,100465.00
2019-04-25T04:27:29.644Z,100472.00
2019-04-25T04:30:00.527Z,100481.00
2019-04-25T04:32:30.893Z,100483.00
2019-04-25T04:35:01.276Z,100487.00
2019-04-25T04:37:33.183Z,100493.00
2019-04-25T04:40:08.267Z,100502.00
2019-04-25T04:42:37.298Z,100495.00
2019-04-25T04:45:08.511Z,100507.00
2019-04-25T04:47:38.885Z,100508.00
2019-04-25T04:50:10.408Z,100521.00
2019-04-25T04:52:40.864Z,100512.00
2019-04-25T04:55:12.574Z,100519.00
2019-04-25T04:57:44.846Z,100520.00
2019-04-25T05:00:16.520Z,100517.00
2019-04-25T05:02:48.870Z,100535.00
2019-04-25T05:05:24.754Z,100538.00
2019-04-25T05:07:56.877Z,100537.00
2019-04-25T05:10:27.280Z,100539.00
2019-04-25T05:12:57.641Z,100546.00
2019-04-25T05:15:28.023Z,100556.00
2019-04-25T05:17:58.389Z,100572.00
2019-04-25T05:20:28.789Z,100570.00
2019-04-25T05:22:59.160Z,100571.00
2019-04-25T05:25:29.635Z,100578.00
2019-04-25T05:28:03.066Z,100581.00
2019-04-25T05:30:50.210Z,100582.00
2019-04-25T05:33:21.574Z,100579.00
2019-04-25T05:35:53.900Z,100576.00
2019-04-25T05:38:25.186Z,100594.00
2019-04-25T05:40:59.700Z,100596.00
2019-04-25T05:43:30.069Z,100603.00
2019-04-25T05:46:00.669Z,100602.00
2019-04-25T05:48:31.107Z,100603.00
2019-04-25T05:51:01.513Z,100601.00
2019-04-25T05:53:33.372Z,100616.00
2019-04-25T05:56:04.213Z,100620.00
2019-04-25T05:58:34.948Z,100631.00
2019-04-25T06:01:05.463Z,100629.00
2019-04-25T06:03:35.861Z,100634.00
2019-04-25T06:06:06.770Z,100632.00
2019-04-25T06:08:38.792Z,100631.00
2019-04-25T06:11:10.804Z,100644.00
2019-04-25T06:13:43.418Z,100644.00
2019-04-25T06:16:18.656Z,100642.00
2019-04-25T06:18:54.913Z,100645.00
2019-04-25T06:21:25.659Z,100647.00
2019-04-25T06:24:15.780Z,100643.00
2019-04-25T06:26:54.315Z,100646.00
2019-04-25T06:29:24.953Z,100642.00
2019-04-25T06:32:05.563Z,100655.00
2019-04-25T06:34:31.688Z,100655.00
2019-04-25T06:37:04.244Z,100640.00
2019-04-25T06:39:33.952Z,100647.00
2019-04-25T06:42:05.124Z,100643.00
2019-04-25T06:44:37.124Z,100647.00
2019-04-25T06:47:15.119Z,100649.00
2019-04-25T06:49:45.845Z,100663.00
2019-04-25T06:52:16.241Z,100669.00
2019-04-25T06:54:46.608Z,100657.00
2019-04-25T06:57:17.011Z,100667.00
2019-04-25T06:59:47.561Z,100666.00
2019-04-25T07:02:19.404Z,100683.00
2019-04-25T07:04:51.623Z,100688.00
2019-04-25T07:07:25.614Z,100686.00
2019-04-25T07:09:58.109Z,100684.00
2019-04-25T07:12:36.047Z,100691.00
2019-04-25T08:04:55.886Z,100734.00
2019-04-25T08:07:27.998Z,100736.00
2019-04-25T08:10:00.134Z,100736.00
2019-04-25T08:12:35.768Z,100733.00
2019-04-25T08:28:54.989Z,100751.00
2019-04-25T08:31:35.230Z,100757.00
2019-04-25T08:37:17.286Z,100763.00
2019-04-25T08:42:34.218Z,100769.00
2019-04-25T08:47:48.835Z,100773.00
2019-04-25T09:19:54.238Z,100787.00
2019-04-25T09:22:37.329Z,100780.00
2019-04-25T09:28:16.106Z,100773.00
2019-04-25T10:18:59.743Z,100734.00
2019-04-25T10:33:26.382Z,100725.00
2019-04-25T10:36:04.211Z,100721.00
2019-04-25T10:41:33.639Z,100736.00
2019-04-25T10:44:06.906Z,100730.00
2019-04-25T10:52:15.643Z,100727.00
2019-04-25T10:54:54.148Z,100720.00
2019-04-25T11:00:33.934Z,100717.00
2019-04-25T11:21:20.645Z,100703.00
2019-04-25T11:29:39.136Z,100706.00
2019-04-25T12:32:31.007Z,100678.00
2019-04-25T12:46:52.517Z,100673.00
2019-04-25T14:17:56.744Z,100605.00
2019-04-25T14:23:24.781Z,100613.00
2019-04-25T14:28:44.150Z,100609.00
2019-04-25T14:34:09.795Z,100592.00
2019-04-25T14:39:19.440Z,100606.00
2019-04-25T14:42:15.174Z,100595.00
2019-04-25T14:44:56.601Z,100591.00
2019-04-25T14:50:11.781Z,100580.00
2019-04-25T15:16:27.654Z,100566.00
2019-04-25T15:19:24.225Z,100568.00
2019-04-25T15:21:55.252Z,100548.00
2019-04-25T15:24:40.035Z,100559.00
2019-04-25T16:12:42.881Z,100542.00
2019-04-25T16:15:29.085Z,100522.00
2019-04-25T17:07:41.899Z,100528.00
2019-04-25T17:21:43.320Z,100531.00
2019-04-25T17:35:39.063Z,100522.00
2019-04-25T17:38:35.717Z,100520.00
2019-04-25T17:47:06.090Z,100520.00
2019-04-25T17:57:45.020Z,100527.00
2019-04-25T18:18:48.948Z,100528.00
2019-04-25T18:29:29.948Z,100525.00
2019-04-25T18:32:01.375Z,100525.00
2019-04-25T18:34:37.403Z,100518.00
2019-04-25T18:37:19.038Z,100521.00
2019-04-25T18:40:06.031Z,100523.00
2019-04-25T18:48:26.066Z,100526.00
2019-04-25T18:53:45.253Z,100522.00
2019-04-25T19:05:19.831Z,100516.00
2019-04-25T19:10:55.321Z,100529.00
2019-04-25T19:22:58.562Z,100520.00
2019-04-25T19:25:28.930Z,100519.00
2019-04-25T19:28:00.411Z,100515.00
2019-04-25T19:30:30.777Z,100516.00
2019-04-25T19:33:01.159Z,100522.00
2019-04-25T19:35:31.519Z,100519.00
2019-04-25T19:38:02.686Z,100518.00
2019-04-25T19:40:41.119Z,100523.00
2019-04-25T19:43:17.144Z,100525.00
2019-04-25T19:45:47.502Z,100524.00
2019-04-25T19:48:18.066Z,100524.00
2019-04-25T19:50:48.433Z,100526.00
2019-04-25T19:53:19.131Z,100527.00
2019-04-25T19:55:49.739Z,100520.00
2019-04-25T19:58:20.203Z,100529.00
2019-04-25T20:00:59.482Z,100532.00
2019-04-25T20:06:47.506Z,100519.00
2019-04-25T20:12:32.061Z,100523.00
2019-04-25T20:31:24.306Z,100521.00
2019-04-25T20:50:38.263Z,100502.00
2019-04-25T20:56:19.448Z,100490.00
2019-04-25T21:02:00.357Z,100488.00
2019-04-25T21:04:48.795Z,100488.00
2019-04-25T21:07:38.727Z,100489.00
2019-04-25T21:10:22.719Z,100496.00
2019-04-25T21:13:02.101Z,100484.00
2019-04-25T21:15:46.833Z,100487.00
2019-04-25T21:18:19.528Z,100486.00
2019-04-25T21:20:57.115Z,100483.00
2019-04-25T21:23:35.745Z,100482.00
2019-04-25T21:55:55.299Z,100456.00
2019-04-25T22:06:49.998Z,100450.00
2019-04-25T22:09:32.047Z,100446.00
2019-04-25T22:12:15.960Z,100441.00
2019-04-25T22:14:57.483Z,100443.00
2019-04-25T22:25:53.588Z,100442.00
2019-04-25T22:28:49.939Z,100454.00
2019-04-25T22:34:51.305Z,100447.00
